createdAt,value
2022-12-11T00:03:21.206Z,-0.96
2022-12-11T00:08:23.026Z,-1.33
2022-12-11T00:13:24.737Z,-1.46
2022-12-11T00:18:26.557Z,-2.49
2022-12-11T00:23:28.627Z,-1.55
2022-12-11T00:28:30.213Z,-1.41
2022-12-11T00:33:31.859Z,-1.24
2022-12-11T00:38:33.554Z,-1.34
2022-12-11T00:43:35.603Z,-1.21
2022-12-11T00:48:37.446Z,-1.60
2022-12-11T00:53:39.620Z,-1.47
2022-12-11T00:58:41.294Z,-1.78
2022-12-11T01:03:43.303Z,-2.18
2022-12-11T01:08:46.308Z,-2.67
2022-12-11T01:13:48.039Z,-3.69
2022-12-11T01:18:49.698Z,-3.67
2022-12-11T01:23:51.999Z,-3.16
2022-12-11T01:28:53.672Z,-3.85
2022-12-11T01:33:56.027Z,-2.95
2022-12-11T01:38:58.139Z,-3.67
2022-12-11T01:44:31.262Z,-4.71
2022-12-11T01:49:33.282Z,-4.40
2022-12-11T01:54:35.447Z,-4.16
2022-12-11T01:59:40.291Z,-4.24
2022-12-11T02:04:43.041Z,-5.49
2022-12-11T02:09:46.653Z,-4.46
2022-12-11T02:14:53.816Z,-3.67
2022-12-11T02:20:15.455Z,-2.88
2022-12-11T02:25:30.047Z,-3.48
2022-12-11T02:30:34.662Z,-3.01
2022-12-11T02:35:42.577Z,-3.54
2022-12-11T02:40:46.973Z,-4.84
2022-12-11T02:45:50.615Z,-5.43
2022-12-11T02:50:56.275Z,-5.30
2022-12-11T02:56:24.606Z,-5.86
2022-12-11T03:01:27.439Z,-4.88
2022-12-11T03:06:37.474Z,-5.12
2022-12-11T03:11:39.101Z,-5.47
2022-12-11T03:17:05.072Z,-5.51
2022-12-11T03:22:18.963Z,-4.86
2022-12-11T03:27:26.238Z,-3.60
2022-12-11T03:32:42.254Z,-4.13
2022-12-11T03:37:48.084Z,-5.30
2022-12-11T03:42:53.775Z,-3.23
2022-12-11T03:47:58.088Z,-4.37
2022-12-11T03:53:01.494Z,-3.53
2022-12-11T03:58:03.403Z,-4.09
2022-12-11T04:03:14.459Z,-4.21
2022-12-11T04:08:17.758Z,-5.18
2022-12-11T04:13:19.479Z,-4.18
2022-12-11T04:18:39.953Z,-3.22
2022-12-11T04:24:00.233Z,-3.39
2022-12-11T04:29:01.872Z,-3.41
2022-12-11T04:34:03.603Z,-2.54
2022-12-11T04:39:06.175Z,-2.95
2022-12-11T04:44:08.298Z,-3.46
2022-12-11T04:49:10.231Z,-3.76
2022-12-11T04:54:11.834Z,-4.56
2022-12-11T04:59:13.482Z,-4.26
2022-12-11T05:04:15.107Z,-4.17
2022-12-11T05:09:16.900Z,-4.70
2022-12-11T05:14:18.968Z,-3.25
2022-12-11T05:19:20.550Z,-4.60
2022-12-11T05:24:22.256Z,-4.59
2022-12-11T05:29:23.883Z,-3.23
2022-12-11T05:34:25.496Z,-3.11
2022-12-11T05:39:27.086Z,-3.53
2022-12-11T05:44:28.778Z,-3.02
2022-12-11T05:49:31.144Z,-3.89
2022-12-11T05:54:32.985Z,-2.86
2022-12-11T05:59:34.676Z,-4.49
2022-12-11T06:04:36.247Z,-2.84
2022-12-11T06:09:37.905Z,-2.93
2022-12-11T06:14:41.015Z,-2.96
2022-12-11T06:19:42.635Z,-2.25
2022-12-11T06:24:44.271Z,-2.15
2022-12-11T06:29:46.627Z,-1.44
2022-12-11T06:34:48.316Z,-1.84
2022-12-11T06:39:49.879Z,-2.45
2022-12-11T06:44:51.455Z,-2.01
2022-12-11T06:49:54.048Z,-2.69
2022-12-11T06:54:56.218Z,-2.14
2022-12-11T06:59:57.786Z,-2.50
2022-12-11T07:04:59.418Z,-2.73
2022-12-11T07:10:07.560Z,-2.76
2022-12-11T07:15:10.728Z,-2.07
2022-12-11T07:20:12.697Z,-1.74
2022-12-11T07:25:14.871Z,-2.55
2022-12-11T07:30:16.623Z,-4.37
2022-12-11T07:35:18.208Z,-2.48
2022-12-11T07:40:19.768Z,-3.24
2022-12-11T07:45:21.514Z,-3.23
2022-12-11T07:50:23.422Z,-2.91
2022-12-11T07:55:25.157Z,-2.14
2022-12-11T08:00:26.831Z,-2.47
2022-12-11T08:05:28.582Z,-1.86
2022-12-11T08:10:30.215Z,-2.53
2022-12-11T08:15:31.802Z,-2.27
2022-12-11T08:20:33.770Z,-2.48
2022-12-11T08:25:36.086Z,-3.10
2022-12-11T08:30:40.078Z,-2.30
2022-12-11T08:35:44.085Z,-2.09
2022-12-11T08:40:45.755Z,-1.90
2022-12-11T08:45:47.427Z,-2.22
2022-12-11T08:50:49.039Z,-1.80
2022-12-11T08:55:53.282Z,-2.14
2022-12-11T09:00:54.928Z,-1.47
2022-12-11T09:05:56.544Z,-2.73
2022-12-11T09:11:03.776Z,-1.88
2022-12-11T09:16:07.799Z,-1.64
2022-12-11T09:21:13.612Z,-2.76
2022-12-11T09:26:17.420Z,-2.36
2022-12-11T09:31:39.311Z,-3.41
2022-12-11T09:36:42.216Z,-2.83
2022-12-11T09:41:58.373Z,-2.00
2022-12-11T09:47:00.668Z,-1.58
2022-12-11T09:52:18.747Z,-2.00
2022-12-11T09:58:01.724Z,-2.55
2022-12-11T10:03:15.683Z,-2.87
2022-12-11T10:08:29.413Z,-1.77
2022-12-11T10:13:45.589Z,-2.11
2022-12-11T10:18:48.886Z,-1.37
2022-12-11T10:24:00.767Z,-1.83
2022-12-11T10:29:02.813Z,-2.16
2022-12-11T10:34:14.526Z,-1.07
2022-12-11T10:39:19.161Z,-1.42
2022-12-11T10:44:29.468Z,-2.34
2022-12-11T10:49:33.866Z,-1.65
2022-12-11T10:54:42.385Z,-2.19
2022-12-11T10:59:43.971Z,-0.66
2022-12-11T11:06:20.669Z,-2.19
2022-12-11T11:11:27.111Z,-2.78
2022-12-11T11:16:29.307Z,-2.74
2022-12-11T11:21:32.706Z,-1.74
2022-12-11T11:27:04.759Z,-2.23
2022-12-11T11:31:56.647Z,-1.90
2022-12-11T11:37:05.582Z,-1.73
2022-12-11T11:42:30.208Z,-2.10
2022-12-11T11:47:41.210Z,-2.39
2022-12-11T11:52:56.164Z,-1.80
2022-12-11T11:58:05.231Z,-1.97
2022-12-11T12:03:18.655Z,-1.55
2022-12-11T12:08:25.971Z,-0.87
2022-12-11T12:13:53.718Z,-1.60
2022-12-11T12:18:58.160Z,-1.55
2022-12-11T12:24:02.859Z,-1.24
2022-12-11T12:29:25.930Z,-1.50
2022-12-11T12:35:05.339Z,-0.81
2022-12-11T12:40:19.127Z,-0.75
2022-12-11T12:45:30.204Z,-0.74
2022-12-11T12:50:38.851Z,-0.65
2022-12-11T12:55:40.699Z,-0.33
2022-12-11T13:00:44.136Z,-1.12
2022-12-11T13:06:28.659Z,-0.50
2022-12-11T13:11:34.887Z,-0.86
2022-12-11T13:16:39.328Z,-1.20
2022-12-11T13:21:41.104Z,-0.30
2022-12-11T13:26:42.966Z,-0.32
2022-12-11T13:31:45.712Z,-2.12
2022-12-11T13:36:53.339Z,-2.56
2022-12-11T13:42:01.610Z,-0.11
2022-12-11T13:47:04.542Z,-0.80
2022-12-11T13:52:07.440Z,0.15
2022-12-11T13:57:09.088Z,-1.23
2022-12-11T14:02:19.680Z,-0.43
2022-12-11T14:07:28.346Z,-0.80
2022-12-11T14:12:31.210Z,-1.13
2022-12-11T14:17:35.306Z,-0.64
2022-12-11T14:22:37.067Z,-1.42
2022-12-11T14:27:50.540Z,-1.66
2022-12-11T14:32:56.952Z,-1.31
2022-12-11T14:38:02.698Z,-0.25
2022-12-11T14:43:23.436Z,-1.20
2022-12-11T14:48:39.199Z,-1.17
2022-12-11T14:53:46.599Z,-0.68
2022-12-11T14:58:59.754Z,-0.91
2022-12-11T15:04:27.940Z,-0.90
2022-12-11T15:09:37.791Z,-0.94
2022-12-11T15:15:00.962Z,-1.25
2022-12-11T15:20:25.991Z,-0.54
2022-12-11T15:25:29.929Z,-1.68
2022-12-11T15:30:34.807Z,-2.24
2022-12-11T15:35:47.136Z,-1.25
2022-12-11T15:40:49.071Z,-1.65
2022-12-11T15:45:50.875Z,-1.13
2022-12-11T15:50:52.652Z,-0.93
2022-12-11T15:55:54.530Z,-0.47
2022-12-11T16:00:57.872Z,-1.10
2022-12-11T16:05:59.583Z,-0.53
2022-12-11T16:11:01.402Z,-1.21
2022-12-11T16:16:03.135Z,-0.73
2022-12-11T16:21:06.479Z,-0.54
2022-12-11T16:26:09.697Z,-2.64
2022-12-11T16:31:13.049Z,-0.48
2022-12-11T16:36:17.061Z,-2.43
2022-12-11T16:41:18.796Z,-1.36
2022-12-11T16:46:22.050Z,-2.30
2022-12-11T16:51:24.354Z,-2.33
2022-12-11T16:56:26.931Z,-1.77
2022-12-11T17:01:28.684Z,-3.49
2022-12-11T17:06:30.400Z,-1.52
2022-12-11T17:11:32.259Z,-0.59
2022-12-11T17:16:34.182Z,-1.35
2022-12-11T17:21:35.929Z,-0.89
2022-12-11T17:26:39.048Z,-1.14
2022-12-11T17:31:41.128Z,-1.39
2022-12-11T17:36:43.053Z,-3.14
2022-12-11T17:41:44.732Z,-1.53
2022-12-11T17:46:46.874Z,-2.18
2022-12-11T17:51:48.589Z,-0.63
2022-12-11T17:56:50.567Z,-1.81
2022-12-11T18:01:52.288Z,-3.97
2022-12-11T18:06:54.166Z,-3.36
2022-12-11T18:11:55.814Z,-1.45
2022-12-11T18:16:57.751Z,-1.22
2022-12-11T18:21:59.466Z,-1.27
2022-12-11T18:27:01.214Z,-1.42
2022-12-11T18:32:03.350Z,-1.86
2022-12-11T18:37:05.216Z,-1.09
2022-12-11T18:47:28.648Z,-0.74
2022-12-11T18:52:30.404Z,-1.24
2022-12-11T18:57:32.561Z,-1.51
2022-12-11T19:02:35.444Z,-2.42
2022-12-11T19:07:37.206Z,-1.24
2022-12-11T19:12:38.896Z,-1.79
2022-12-11T19:17:43.027Z,-2.12
2022-12-11T19:22:45.691Z,-2.34
2022-12-11T19:27:47.452Z,-1.80
2022-12-11T19:32:49.331Z,-1.93
2022-12-11T19:37:51.028Z,-1.70
2022-12-11T19:42:52.854Z,-1.26
2022-12-11T19:47:55.836Z,-1.55
2022-12-11T19:52:57.751Z,-2.25
2022-12-11T19:58:00.705Z,-1.27
2022-12-11T20:03:02.349Z,-1.22
2022-12-11T20:08:35.330Z,-2.05
2022-12-11T20:13:26.131Z,-1.39
2022-12-11T20:18:27.936Z,-1.51
2022-12-11T20:23:30.007Z,-1.10
2022-12-11T20:28:31.870Z,-1.26
2022-12-11T20:33:34.089Z,-0.07
2022-12-11T20:38:37.284Z,-0.65
2022-12-11T20:43:39.475Z,0.04
2022-12-11T20:48:43.684Z,0.10
2022-12-11T20:53:45.487Z,-0.33
2022-12-11T20:58:47.290Z,-0.52
2022-12-11T21:03:49.328Z,-0.35
2022-12-11T21:08:51.200Z,-3.24
2022-12-11T21:13:53.272Z,-0.36
2022-12-11T21:18:56.841Z,-1.58
2022-12-11T21:23:58.887Z,-0.11
2022-12-11T21:29:00.584Z,-1.51
2022-12-11T21:34:02.533Z,-0.48
2022-12-11T21:39:04.628Z,-1.49
2022-12-11T21:49:28.243Z,-0.77
2022-12-11T21:54:30.040Z,-1.42
2022-12-11T21:59:31.921Z,-1.03
2022-12-11T22:04:33.642Z,-1.74
2022-12-11T22:09:35.408Z,-2.96
2022-12-11T22:14:37.170Z,-1.24
2022-12-11T22:19:38.847Z,-1.09
2022-12-11T22:24:41.151Z,-1.14
2022-12-11T22:29:42.870Z,-1.97
2022-12-11T22:34:44.579Z,-0.75
2022-12-11T22:39:46.231Z,-1.54
2022-12-11T22:44:47.900Z,-3.34
2022-12-11T22:49:49.891Z,-1.74
2022-12-11T22:54:51.539Z,-1.50
2022-12-11T22:59:53.331Z,-0.49
2022-12-11T23:04:55.000Z,-1.23
2022-12-11T23:09:56.654Z,-0.58
2022-12-11T23:15:00.409Z,-1.19
2022-12-11T23:20:04.096Z,-1.02
2022-12-11T23:25:06.141Z,-0.02
2022-12-11T23:30:08.892Z,-0.20
2022-12-11T23:35:10.880Z,0.27
2022-12-11T23:40:14.605Z,-0.29
2022-12-11T23:45:16.340Z,0.24
2022-12-11T23:50:18.496Z,0.06
2022-12-11T23:55:20.850Z,-0.81
